Time;durP1;ratioP1;P1;durP2;ratioP2;P2;SDS_P1;SDS_P2;PMS_P1;PMS_P2;Temp;Humidity;BMP_temperature;BMP_pressure;BME280_temperature;BME280_humidity;BME280_pressure;Samples;Min_cycle;Max_cycle;Signal;HPM_P1;HPM_P2
2023/03/21 00:00:44;;;;;;;10.30;8.25;;;11.10;99.90;;;;;;5069371;28;20055;-75
2023/03/21 00:03:10;;;;;;;10.48;8.52;;;10.10;99.90;;;;;;5076860;28;20044;-76
2023/03/21 00:05:41;;;;;;;11.02;7.95;;;11.10;99.90;;;;;;5070213;28;20170;-75
2023/03/21 00:08:07;;;;;;;9.95;7.85;;;10.10;99.90;;;;;;5085572;28;20192;-75
2023/03/21 00:10:32;;;;;;;10.18;7.72;;;10.70;99.90;;;;;;5070105;28;20047;-74
2023/03/21 00:12:58;;;;;;;8.52;6.68;;;8.90;99.90;;;;;;5071516;28;20044;-75
2023/03/21 00:15:26;;;;;;;7.90;6.40;;;10.40;99.90;;;;;;5053610;28;20049;-75
2023/03/21 00:18:03;;;;;;;7.60;6.20;;;9.00;99.90;;;;;;5069515;28;20068;-75
2023/03/21 00:20:36;;;;;;;9.10;6.55;;;11.20;99.90;;;;;;5057244;28;20417;-75
2023/03/21 00:23:03;;;;;;;8.18;6.90;;;11.20;99.90;;;;;;5062101;28;20098;-75
2023/03/21 00:25:31;;;;;;;8.18;7.10;;;11.10;99.90;;;;;;5085249;28;20390;-75
2023/03/21 00:27:57;;;;;;;8.60;6.70;;;10.90;99.90;;;;;;5081974;28;20663;-75
2023/03/21 00:30:23;;;;;;;8.98;6.75;;;9.40;99.90;;;;;;5051620;28;20534;-75
2023/03/21 00:32:49;;;;;;;9.63;7.35;;;10.20;99.90;;;;;;5080019;28;20071;-75
2023/03/21 00:35:15;;;;;;;9.55;7.03;;;11.40;99.90;;;;;;5089743;28;20490;-75
2023/03/21 00:37:41;;;;;;;8.20;6.68;;;11.30;99.90;;;;;;5054499;28;20040;-76
2023/03/21 00:40:09;;;;;;;10.38;7.53;;;9.10;99.90;;;;;;5081871;28;20055;-76
2023/03/21 00:42:35;;;;;;;13.35;8.30;;;11.00;99.90;;;;;;5083641;28;20040;-76
2023/03/21 00:45:02;;;;;;;14.13;8.65;;;10.30;99.90;;;;;;5062436;28;20056;-76
2023/03/21 00:47:27;;;;;;;15.27;9.07;;;8.80;99.90;;;;;;5081024;28;20195;-75
2023/03/21 00:49:53;;;;;;;14.70;9.27;;;9.10;99.90;;;;;;5070692;28;20124;-76
2023/03/21 00:52:19;;;;;;;16.45;9.70;;;10.80;99.90;;;;;;5084822;28;20055;-74
2023/03/21 00:54:44;;;;;;;19.73;10.70;;;9.40;99.90;;;;;;5088279;28;20050;-75
2023/03/21 00:57:10;;;;;;;18.90;10.43;;;8.90;99.90;;;;;;5061039;28;20080;-75
2023/03/21 00:59:36;;;;;;;21.58;12.70;;;11.30;99.90;;;;;;5070081;28;20612;-75
2023/03/21 01:02:06;;;;;;;20.92;12.10;;;10.50;99.90;;;;;;5087301;28;20128;-75
2023/03/21 01:04:33;;;;;;;24.35;12.38;;;10.30;99.90;;;;;;5071803;28;20388;-76
2023/03/21 01:06:59;;;;;;;27.17;13.82;;;9.20;99.90;;;;;;5082365;28;20487;-75
2023/03/21 01:09:25;;;;;;;27.33;14.75;;;8.80;99.90;;;;;;5072726;28;20048;-76
2023/03/21 01:11:52;;;;;;;23.50;13.10;;;9.00;99.90;;;;;;5073860;28;20051;-76
2023/03/21 01:14:20;;;;;;;23.13;12.68;;;10.40;99.90;;;;;;5065855;28;20040;-75
2023/03/21 01:16:46;;;;;;;30.35;14.57;;;8.90;99.90;;;;;;5063186;28;20074;-75
2023/03/21 01:19:15;;;;;;;28.65;14.57;;;10.70;99.90;;;;;;5083987;28;20468;-75
2023/03/21 01:21:41;;;;;;;28.70;14.95;;;10.90;99.90;;;;;;5079303;28;20045;-77
2023/03/21 01:24:07;;;;;;;25.55;13.32;;;10.70;99.90;;;;;;5084076;28;20463;-76
2023/03/21 01:26:33;;;;;;;24.38;12.75;;;11.00;99.90;;;;;;5088881;28;20071;-76
2023/03/21 01:28:59;;;;;;;29.13;15.27;;;10.90;99.90;;;;;;5080010;28;20115;-75
2023/03/21 01:31:24;;;;;;;28.75;15.10;;;11.20;99.90;;;;;;5078245;28;20363;-75
2023/03/21 01:33:50;;;;;;;26.55;13.57;;;8.90;99.90;;;;;;5084724;28;20045;-76
2023/03/21 01:36:20;;;;;;;26.02;13.75;;;9.50;99.90;;;;;;5080556;28;20040;-75
2023/03/21 01:38:46;;;;;;;23.85;13.15;;;9.10;99.90;;;;;;5060035;28;20043;-75
2023/03/21 01:41:31;;;;;;;23.90;12.68;;;8.90;99.90;;;;;;5082610;28;20044;-75
2023/03/21 01:43:57;;;;;;;19.85;12.10;;;11.80;99.90;;;;;;5080300;28;20036;-76
2023/03/21 01:46:40;;;;;;;21.23;12.05;;;9.50;99.90;;;;;;5063045;28;20060;-75
2023/03/21 01:49:09;;;;;;;18.15;10.55;;;11.50;99.90;;;;;;5086734;28;20040;-75
2023/03/21 01:51:39;;;;;;;18.83;10.77;;;11.60;99.90;;;;;;5081111;28;20035;-76
2023/03/21 01:54:10;;;;;;;17.00;10.25;;;9.90;99.90;;;;;;5080310;28;20051;-76
2023/03/21 01:56:38;;;;;;;18.35;11.23;;;8.90;99.90;;;;;;5081805;28;20051;-76
2023/03/21 01:59:11;;;;;;;20.23;12.13;;;8.80;99.90;;;;;;5084264;28;20141;-76
2023/03/21 02:01:41;;;;;;;21.75;11.45;;;9.60;99.90;;;;;;5075466;28;20563;-75
2023/03/21 02:04:07;;;;;;;18.02;10.35;;;9.00;99.90;;;;;;5072050;28;20044;-75
2023/03/21 02:06:48;;;;;;;21.67;12.75;;;9.40;99.90;;;;;;5056787;28;20193;-77
2023/03/21 02:09:19;;;;;;;19.77;12.68;;;10.10;99.90;;;;;;5060737;28;20071;-74
2023/03/21 02:11:45;;;;;;;18.25;11.52;;;10.30;99.90;;;;;;5063125;28;20057;-74
2023/03/21 02:14:14;;;;;;;20.00;11.85;;;11.20;99.90;;;;;;5072349;28;20051;-75
2023/03/21 02:17:01;;;;;;;20.65;11.48;;;9.00;99.90;;;;;;5082524;28;20052;-75
2023/03/21 02:20:05;;;;;;;20.42;12.63;;;10.30;99.90;;;;;;5086161;28;20044;-74
2023/03/21 02:23:16;;;;;;;21.75;12.50;;;11.90;99.90;;;;;;5070459;28;20131;-75
2023/03/21 02:25:50;;;;;;;19.15;12.60;;;10.60;99.90;;;;;;5045058;28;20080;-75
2023/03/21 02:28:50;;;;;;;16.85;10.77;;;11.50;99.90;;;;;;5082478;28;20047;-75
2023/03/21 02:31:25;;;;;;;16.58;10.75;;;9.10;99.90;;;;;;5070043;28;20063;-75
2023/03/21 02:34:33;;;;;;;18.35;12.18;;;9.20;99.90;;;;;;5083037;28;20048;-75
2023/03/21 02:37:04;;;;;;;19.83;13.05;;;9.10;99.90;;;;;;5085579;28;20510;-76
2023/03/21 02:39:50;;;;;;;15.43;11.82;;;11.70;99.90;;;;;;5083899;28;20048;-75
2023/03/21 02:42:30;;;;;;;16.42;11.77;;;11.60;99.90;;;;;;5070828;28;20045;-75
2023/03/21 02:45:12;;;;;;;16.20;11.63;;;9.70;99.90;;;;;;5065185;28;20378;-75
2023/03/21 02:47:46;;;;;;;17.77;12.50;;;11.50;99.90;;;;;;5075163;28;20086;-76
2023/03/21 02:50:18;;;;;;;15.63;11.57;;;11.70;99.90;;;;;;5081338;28;20047;-75
2023/03/21 02:52:47;;;;;;;15.50;11.40;;;11.70;99.90;;;;;;5087050;28;20436;-75
2023/03/21 02:55:21;;;;;;;16.25;11.90;;;9.30;99.90;;;;;;5084711;28;20518;-75
2023/03/21 02:57:48;;;;;;;18.00;12.85;;;10.60;99.90;;;;;;5084180;28;20475;-76
2023/03/21 03:00:24;;;;;;;17.02;13.13;;;11.00;99.90;;;;;;5088544;28;20067;-75
2023/03/21 03:02:50;;;;;;;16.05;12.50;;;12.10;99.90;;;;;;5081064;28;20044;-76
2023/03/21 03:05:19;;;;;;;17.17;13.32;;;9.90;99.90;;;;;;5075510;28;20119;-75
2023/03/21 03:08:24;;;;;;;14.48;11.48;;;9.60;99.90;;;;;;5078100;28;20037;-75
2023/03/21 03:11:05;;;;;;;13.93;11.07;;;9.20;99.90;;;;;;5072960;28;20078;-75
2023/03/21 03:13:52;;;;;;;16.80;11.93;;;9.20;99.90;;;;;;5077784;28;20047;-76
2023/03/21 03:16:26;;;;;;;15.00;11.00;;;11.30;99.90;;;;;;5062436;28;20090;-75
2023/03/21 03:18:55;;;;;;;16.08;11.90;;;11.00;99.90;;;;;;5089373;28;20689;-75
2023/03/21 03:21:29;;;;;;;13.80;11.48;;;9.50;99.90;;;;;;5087643;28;20055;-75
2023/03/21 03:24:15;;;;;;;14.52;11.95;;;9.00;99.90;;;;;;5081512;28;20082;-75
2023/03/21 03:27:03;;;;;;;15.57;12.70;;;10.20;99.90;;;;;;5078499;28;20440;-75
2023/03/21 03:29:31;;;;;;;12.93;10.73;;;9.10;99.90;;;;;;5084845;28;20048;-76
2023/03/21 03:32:11;;;;;;;13.13;11.30;;;12.00;99.90;;;;;;5061339;28;20045;-75
2023/03/21 03:34:42;;;;;;;13.98;11.00;;;11.80;99.90;;;;;;5065043;28;20135;-75
2023/03/21 03:37:14;;;;;;;14.85;12.10;;;10.00;99.90;;;;;;5085549;28;20359;-75
2023/03/21 03:39:50;;;;;;;13.13;11.25;;;11.30;99.90;;;;;;5076996;28;20039;-76
2023/03/21 03:42:40;;;;;;;12.60;10.27;;;10.20;99.90;;;;;;5078189;28;20048;-75
2023/03/21 03:45:08;;;;;;;14.35;11.30;;;9.00;99.90;;;;;;5087320;28;20100;-76
2023/03/21 03:47:52;;;;;;;12.55;10.70;;;9.60;99.90;;;;;;5086538;28;20040;-75
2023/03/21 03:50:53;;;;;;;16.10;11.80;;;9.40;99.90;;;;;;5081096;28;20040;-75
2023/03/21 03:53:26;;;;;;;12.70;10.25;;;11.70;99.90;;;;;;5074786;28;20055;-75
2023/03/21 03:55:54;;;;;;;11.98;10.40;;;9.10;99.90;;;;;;5080079;28;20507;-76
2023/03/21 03:58:21;;;;;;;13.05;10.55;;;11.60;99.90;;;;;;5089125;28;20047;-75
2023/03/21 04:00:47;;;;;;;12.35;9.60;;;11.30;99.90;;;;;;5089551;28;20036;-74
2023/03/21 04:03:13;;;;;;;13.70;10.73;;;9.60;99.90;;;;;;5086592;28;20052;-75
2023/03/21 04:05:40;;;;;;;12.05;9.43;;;9.50;99.90;;;;;;5068446;28;20024;-75
2023/03/21 04:08:07;;;;;;;12.60;9.93;;;12.10;99.90;;;;;;5088764;28;20553;-76
2023/03/21 04:10:33;;;;;;;12.00;9.07;;;11.50;99.90;;;;;;5090502;28;20040;-76
2023/03/21 04:12:58;;;;;;;12.18;9.15;;;9.10;99.90;;;;;;5085507;28;20051;-76
2023/03/21 04:15:24;;;;;;;12.90;9.75;;;9.00;99.90;;;;;;5082718;28;20052;-75
2023/03/21 04:17:50;;;;;;;10.00;7.88;;;9.50;99.90;;;;;;5087917;28;20502;-75
2023/03/21 04:20:16;;;;;;;10.10;7.60;;;11.10;99.90;;;;;;5087963;28;20052;-75
2023/03/21 04:22:42;;;;;;;8.95;7.15;;;9.20;99.90;;;;;;5073462;28;20098;-75
2023/03/21 04:25:08;;;;;;;10.00;7.70;;;9.10;99.90;;;;;;5071553;28;20488;-75
2023/03/21 04:27:34;;;;;;;12.55;9.18;;;11.50;99.90;;;;;;5084799;28;20040;-76
2023/03/21 04:29:59;;;;;;;12.35;8.90;;;9.90;99.90;;;;;;5070787;28;20044;-75
2023/03/21 04:32:26;;;;;;;12.23;9.40;;;11.70;99.90;;;;;;5055700;28;20092;-75
2023/03/21 04:34:53;;;;;;;13.07;9.55;;;10.50;99.90;;;;;;5079515;28;20044;-75
2023/03/21 04:37:22;;;;;;;12.70;9.55;;;11.90;99.90;;;;;;5084610;28;20052;-75
2023/03/21 04:39:49;;;;;;;8.27;7.10;;;10.60;99.90;;;;;;5071580;28;20427;-75
2023/03/21 04:42:19;;;;;;;8.68;7.43;;;10.00;99.90;;;;;;5060470;28;20040;-75
2023/03/21 04:44:46;;;;;;;10.52;7.32;;;9.70;99.90;;;;;;5075616;28;20032;-74
2023/03/21 04:47:14;;;;;;;9.10;7.13;;;9.00;99.90;;;;;;5078629;28;20470;-75
2023/03/21 04:49:42;;;;;;;11.13;7.70;;;10.00;99.90;;;;;;5055744;28;20058;-74
2023/03/21 04:52:08;;;;;;;11.77;8.60;;;10.70;99.90;;;;;;5081662;28;20039;-75
2023/03/21 04:54:34;;;;;;;9.07;7.10;;;9.80;99.90;;;;;;5081260;28;20404;-75
2023/03/21 04:57:00;;;;;;;12.32;8.40;;;11.90;99.90;;;;;;5082250;28;20139;-76
2023/03/21 04:59:26;;;;;;;11.05;7.93;;;9.80;99.90;;;;;;5066907;28;20511;-76
2023/03/21 05:01:51;;;;;;;11.95;7.90;;;9.20;99.90;;;;;;5073432;28;20055;-75
2023/03/21 05:04:17;;;;;;;9.82;7.53;;;11.30;99.90;;;;;;5077706;28;20024;-76
2023/03/21 05:06:44;;;;;;;10.95;7.70;;;11.60;99.90;;;;;;5052688;28;20159;-76
2023/03/21 05:09:11;;;;;;;10.90;8.10;;;9.80;99.90;;;;;;5053022;28;20185;-75
2023/03/21 05:11:39;;;;;;;11.00;8.18;;;11.60;99.90;;;;;;5069009;28;20187;-76
2023/03/21 05:14:07;;;;;;;10.82;8.32;;;11.70;99.90;;;;;;5076531;28;20048;-75
2023/03/21 05:16:35;;;;;;;11.88;8.50;;;11.40;99.90;;;;;;5077945;28;20048;-76
2023/03/21 05:19:04;;;;;;;10.60;7.75;;;9.40;99.90;;;;;;5063878;28;20093;-76
2023/03/21 05:21:40;;;;;;;10.95;7.82;;;11.80;99.90;;;;;;5075853;28;20049;-75
2023/03/21 05:24:11;;;;;;;12.90;8.47;;;9.20;99.90;;;;;;5075540;28;20124;-75
2023/03/21 05:26:38;;;;;;;10.98;8.88;;;10.90;99.90;;;;;;5069202;28;20286;-76
2023/03/21 05:29:04;;;;;;;11.77;8.75;;;12.00;99.90;;;;;;5073679;28;20119;-77
2023/03/21 05:31:30;;;;;;;9.30;7.50;;;11.90;99.90;;;;;;5071225;28;20033;-77
2023/03/21 05:33:56;;;;;;;10.55;7.85;;;11.60;99.90;;;;;;5070713;28;20053;-78
2023/03/21 05:36:22;;;;;;;10.50;7.60;;;11.90;99.90;;;;;;5082747;28;20044;-76
2023/03/21 05:38:47;;;;;;;13.23;9.32;;;11.80;99.90;;;;;;5074058;28;20127;-76
2023/03/21 05:41:15;;;;;;;10.27;7.90;;;11.30;99.90;;;;;;5054200;28;20126;-76
2023/03/21 05:43:41;;;;;;;10.68;8.23;;;10.80;99.90;;;;;;5076792;28;20068;-75
2023/03/21 05:46:07;;;;;;;9.63;7.75;;;10.00;99.90;;;;;;5081800;28;20117;-76
2023/03/21 05:48:33;;;;;;;10.80;7.60;;;11.60;99.90;;;;;;5075690;28;20395;-76
2023/03/21 05:51:00;;;;;;;11.00;8.18;;;11.70;99.90;;;;;;5074054;28;20044;-76
2023/03/21 05:53:26;;;;;;;11.50;8.38;;;11.20;99.90;;;;;;5075773;28;20120;-76
2023/03/21 05:55:51;;;;;;;10.05;7.72;;;9.20;99.90;;;;;;5069393;28;20055;-75
2023/03/21 05:58:17;;;;;;;9.45;7.38;;;9.10;99.90;;;;;;5060816;28;20135;-76
2023/03/21 06:00:43;;;;;;;8.98;7.53;;;12.10;99.90;;;;;;5060816;28;20046;-76
2023/03/21 06:03:08;;;;;;;8.38;6.78;;;10.80;99.90;;;;;;5072846;28;20132;-74
2023/03/21 06:05:34;;;;;;;11.20;8.15;;;9.80;99.90;;;;;;5075322;28;20402;-76
2023/03/21 06:08:00;;;;;;;7.93;6.65;;;9.60;99.90;;;;;;5072397;28;20040;-75
2023/03/21 06:10:26;;;;;;;10.75;8.25;;;10.40;99.90;;;;;;5064350;28;20040;-75
2023/03/21 06:12:51;;;;;;;9.15;7.13;;;11.50;99.90;;;;;;5055921;28;20051;-76
2023/03/21 06:15:18;;;;;;;8.52;6.65;;;9.10;99.90;;;;;;5078560;28;20078;-76
2023/03/21 06:17:43;;;;;;;7.88;6.20;;;9.00;99.90;;;;;;5079820;28;20044;-75
2023/03/21 06:20:10;;;;;;;8.93;7.50;;;11.70;99.90;;;;;;5084174;28;20051;-78
2023/03/21 06:22:36;;;;;;;8.48;6.57;;;9.40;99.90;;;;;;5081039;28;20035;-79
2023/03/21 06:25:03;;;;;;;7.65;5.88;;;11.90;99.90;;;;;;5072444;28;20044;-79
2023/03/21 06:27:29;;;;;;;8.02;6.63;;;9.80;99.90;;;;;;5065355;28;20175;-78
2023/03/21 06:29:56;;;;;;;8.98;7.38;;;9.30;99.90;;;;;;5086732;28;20451;-78
2023/03/21 06:32:22;;;;;;;7.55;6.38;;;10.30;99.90;;;;;;5072136;28;20048;-78
2023/03/21 06:34:48;;;;;;;8.88;6.60;;;9.30;99.90;;;;;;5076688;28;20040;-77
2023/03/21 06:37:14;;;;;;;7.72;6.30;;;12.00;99.90;;;;;;5075601;28;20037;-78
2023/03/21 06:39:39;;;;;;;7.63;5.55;;;11.90;99.90;;;;;;5055970;28;20044;-78
2023/03/21 06:42:05;;;;;;;9.30;7.80;;;12.20;99.90;;;;;;5077018;28;20078;-78
2023/03/21 06:44:31;;;;;;;7.85;6.80;;;10.90;99.90;;;;;;5083614;28;20395;-78
2023/03/21 06:46:57;;;;;;;7.95;6.43;;;10.90;99.90;;;;;;5072779;28;20071;-77
2023/03/21 06:49:22;;;;;;;8.65;7.50;;;9.90;99.90;;;;;;5079650;28;20032;-76
2023/03/21 06:51:48;;;;;;;9.73;7.82;;;12.30;99.90;;;;;;5058643;28;20659;-75
2023/03/21 06:54:16;;;;;;;9.20;7.72;;;11.30;99.90;;;;;;5070949;28;20072;-75
2023/03/21 06:56:42;;;;;;;9.02;7.38;;;11.30;99.90;;;;;;5073024;28;20550;-75
2023/03/21 06:59:08;;;;;;;7.43;6.55;;;9.60;99.90;;;;;;5073711;28;20165;-74
2023/03/21 07:01:34;;;;;;;6.88;6.03;;;10.60;99.90;;;;;;5091958;28;20063;-75
2023/03/21 07:04:00;;;;;;;7.93;6.35;;;10.40;99.90;;;;;;5091340;28;20047;-75
2023/03/21 07:06:27;;;;;;;;;;;10.00;99.90;;;;;;5074953;28;20036;-75
2023/03/21 07:08:54;;;;;;;9.45;7.63;;;11.80;99.90;;;;;;5089511;28;19998;-75
2023/03/21 07:11:20;;;;;;;9.18;8.20;;;11.10;99.90;;;;;;5091383;28;20114;-74
2023/03/21 07:13:47;;;;;;;;;;;11.80;99.90;;;;;;5093309;28;20040;-75
2023/03/21 07:16:16;;;;;;;11.13;8.90;;;9.90;99.90;;;;;;5091542;28;20262;-74
2023/03/21 07:18:45;;;;;;;10.48;8.55;;;11.90;99.90;;;;;;5065910;28;20032;-74
2023/03/21 07:21:11;;;;;;;10.15;8.32;;;10.60;99.90;;;;;;5068409;28;20127;-75
2023/03/21 07:23:39;;;;;;;8.55;7.63;;;9.60;99.90;;;;;;5077861;28;20144;-74
2023/03/21 07:26:05;;;;;;;8.30;7.40;;;9.40;99.90;;;;;;5074829;28;20043;-75
2023/03/21 07:28:32;;;;;;;;;;;12.00;99.90;;;;;;5086431;28;20498;-74
2023/03/21 07:31:01;;;;;;;10.20;8.13;;;10.30;99.90;;;;;;5071615;28;19920;-74
2023/03/21 07:33:27;;;;;;;9.23;8.20;;;9.90;99.90;;;;;;5084977;28;20278;-74
2023/03/21 07:35:55;;;;;;;10.10;7.72;;;11.60;99.90;;;;;;5080031;28;20042;-74
2023/03/21 07:38:21;;;;;;;9.65;8.00;;;9.40;99.90;;;;;;5056920;28;20036;-76
2023/03/21 07:40:47;;;;;;;8.00;6.78;;;9.60;99.90;;;;;;5090808;28;20035;-75
2023/03/21 07:43:14;;;;;;;7.82;6.85;;;9.40;99.90;;;;;;5090795;28;20040;-75
2023/03/21 07:45:41;;;;;;;7.45;6.65;;;10.20;99.90;;;;;;5084786;28;20053;-75
2023/03/21 07:48:07;;;;;;;7.72;6.03;;;10.90;99.90;;;;;;5065995;28;20572;-75
2023/03/21 07:50:33;;;;;;;6.50;5.80;;;9.80;99.90;;;;;;5059855;28;20047;-74
2023/03/21 07:52:59;;;;;;;7.18;6.47;;;12.30;99.90;;;;;;5080807;28;20044;-75
2023/03/21 07:55:25;;;;;;;6.68;5.97;;;9.70;99.90;;;;;;5086578;28;20086;-74
2023/03/21 07:57:52;;;;;;;6.88;6.18;;;9.70;99.90;;;;;;5090859;28;20083;-74
2023/03/21 08:00:21;;;;;;;6.07;5.43;;;12.30;99.90;;;;;;5073614;28;20052;-74
2023/03/21 08:02:53;;;;;;;6.28;5.63;;;11.80;99.90;;;;;;5073361;28;20044;-74
2023/03/21 08:05:21;;;;;;;6.03;5.43;;;9.50;99.90;;;;;;5090951;28;20109;-74
2023/03/21 08:07:46;;;;;;;5.28;4.70;;;9.80;99.90;;;;;;5085453;28;20180;-75
2023/03/21 08:10:12;;;;;;;5.78;5.07;;;11.00;99.90;;;;;;5064516;28;20040;-75
2023/03/21 08:12:38;;;;;;;5.80;5.20;;;11.50;99.90;;;;;;5090404;28;20048;-75
2023/03/21 08:15:04;;;;;;;5.55;4.57;;;11.70;99.90;;;;;;5090443;28;20549;-75
2023/03/21 08:17:30;;;;;;;4.95;4.45;;;10.00;99.90;;;;;;5073579;28;20046;-75
2023/03/21 08:19:56;;;;;;;4.57;4.18;;;11.80;99.90;;;;;;5090254;28;20501;-74
2023/03/21 08:22:22;;;;;;;5.85;4.53;;;9.90;99.90;;;;;;5090393;28;20040;-75
2023/03/21 08:24:47;;;;;;;4.72;4.28;;;11.80;99.90;;;;;;5075995;28;20454;-74
2023/03/21 08:27:13;;;;;;;4.47;4.07;;;11.90;99.90;;;;;;5090042;28;20048;-75
2023/03/21 08:29:41;;;;;;;4.68;4.18;;;12.40;99.90;;;;;;5089550;28;20040;-75
2023/03/21 08:32:07;;;;;;;4.43;4.03;;;10.80;99.90;;;;;;5091210;28;20051;-75
2023/03/21 08:34:33;;;;;;;3.97;3.58;;;12.00;99.90;;;;;;5088713;28;20170;-75
2023/03/21 08:37:00;;;;;;;4.20;3.80;;;12.10;99.90;;;;;;5069714;28;20115;-75
2023/03/21 08:39:26;;;;;;;;;;;10.20;99.90;;;;;;5083788;28;20368;-75
2023/03/21 08:41:51;;;;;;;4.40;4.00;;;12.40;99.90;;;;;;5089956;28;19946;-74
2023/03/21 08:44:17;;;;;;;4.20;3.80;;;9.50;99.90;;;;;;5089506;28;20477;-74
2023/03/21 08:46:43;;;;;;;4.28;3.88;;;11.90;99.90;;;;;;5089585;28;20132;-74
2023/03/21 08:49:09;;;;;;;4.28;3.88;;;9.60;99.90;;;;;;5063642;28;20488;-74
2023/03/21 08:51:36;;;;;;;5.07;4.40;;;12.00;99.90;;;;;;5083645;28;20524;-74
2023/03/21 08:54:02;;;;;;;4.28;3.88;;;11.30;99.90;;;;;;5069432;28;20054;-74
2023/03/21 08:56:28;;;;;;;4.30;3.90;;;12.30;99.90;;;;;;5083423;28;20131;-74
2023/03/21 08:58:54;;;;;;;4.05;3.65;;;10.00;99.90;;;;;;5089543;28;20130;-74
2023/03/21 09:01:19;;;;;;;3.47;3.13;;;9.90;99.90;;;;;;5077878;28;20044;-74
2023/03/21 09:03:45;;;;;;;4.40;3.78;;;12.00;99.90;;;;;;5070359;28;20048;-74
2023/03/21 09:06:13;;;;;;;3.78;3.38;;;10.30;99.90;;;;;;5089860;28;20036;-74
2023/03/21 09:08:41;;;;;;;4.50;3.67;;;11.70;99.90;;;;;;5072823;28;20040;-75
2023/03/21 09:11:07;;;;;;;6.25;4.25;;;11.20;99.90;;;;;;5042566;28;20043;-75
2023/03/21 09:13:33;;;;;;;4.25;3.67;;;12.10;99.90;;;;;;5079152;28;20051;-74
2023/03/21 09:16:00;;;;;;;6.88;4.07;;;9.80;99.90;;;;;;5085881;28;20056;-76
2023/03/21 09:18:37;;;;;;;6.22;4.00;;;10.80;99.90;;;;;;5088879;28;20071;-75
2023/03/21 09:21:11;;;;;;;8.18;5.05;;;11.20;99.90;;;;;;5087305;28;20048;-75
2023/03/21 09:23:38;;;;;;;9.88;5.32;;;11.80;99.90;;;;;;5078195;28;20059;-75
2023/03/21 09:26:05;;;;;;;7.35;5.10;;;9.70;99.90;;;;;;5087490;28;20113;-75
2023/03/21 09:28:32;;;;;;;8.27;5.78;;;11.50;99.90;;;;;;5060474;28;20032;-75
2023/03/21 09:31:01;;;;;;;9.63;6.07;;;11.70;99.90;;;;;;5089770;28;20519;-75
2023/03/21 09:33:28;;;;;;;7.43;5.63;;;12.00;99.90;;;;;;5092778;28;20044;-74
2023/03/21 09:35:59;;;;;;;10.55;7.50;;;11.90;99.90;;;;;;5093513;28;20506;-74
2023/03/21 09:38:36;;;;;;;9.73;7.57;;;11.70;99.90;;;;;;5076537;28;20051;-74
2023/03/21 09:41:23;;;;;;;9.23;8.05;;;11.50;99.90;;;;;;5093500;28;20051;-74
2023/03/21 09:44:20;;;;;;;11.48;8.50;;;11.90;99.90;;;;;;5073001;28;20052;-74
2023/03/21 09:47:08;;;;;;;10.00;7.95;;;9.40;99.90;;;;;;5090807;28;20044;-74
2023/03/21 09:49:50;;;;;;;9.93;7.55;;;11.20;99.90;;;;;;5093461;28;20130;-74
2023/03/21 09:52:46;;;;;;;10.07;7.47;;;9.50;99.90;;;;;;5063803;28;20036;-74
2023/03/21 09:55:20;;;;;;;10.80;8.80;;;10.00;99.90;;;;;;5089888;28;20094;-74
2023/03/21 09:57:50;;;;;;;12.10;8.80;;;10.50;99.90;;;;;;5084602;28;20036;-74
2023/03/21 10:00:28;;;;;;;13.18;10.07;;;10.10;99.90;;;;;;5092858;28;20043;-74
2023/03/21 10:02:58;;;;;;;13.13;10.02;;;9.80;99.90;;;;;;5092457;28;20484;-75
2023/03/21 10:05:30;;;;;;;13.95;11.25;;;11.50;99.90;;;;;;5092998;28;20056;-74
2023/03/21 10:08:08;;;;;;;12.73;10.13;;;11.20;99.90;;;;;;5078673;28;20040;-74
2023/03/21 10:10:38;;;;;;;12.15;9.25;;;11.20;99.90;;;;;;5092802;28;20156;-74
2023/03/21 10:13:12;;;;;;;16.92;11.30;;;11.20;99.90;;;;;;5078865;28;20079;-73
2023/03/21 10:15:38;;;;;;;15.15;9.43;;;10.00;99.90;;;;;;5062082;28;20048;-75
2023/03/21 10:18:15;;;;;;;11.18;8.45;;;11.10;99.90;;;;;;5070029;28;20052;-74
2023/03/21 10:20:41;;;;;;;;;;;9.60;99.90;;;;;;5086345;28;20177;-74
2023/03/21 10:23:16;;;;;;;14.48;9.82;;;11.30;99.90;;;;;;5070489;28;20306;-74
2023/03/21 10:26:03;;;;;;;17.67;11.85;;;9.60;99.90;;;;;;5084842;28;20541;-74
2023/03/21 10:28:33;;;;;;;13.85;10.85;;;9.90;99.90;;;;;;5071641;28;20118;-74
2023/03/21 10:31:03;;;;;;;11.52;8.88;;;9.60;99.90;;;;;;5086439;28;20121;-75
2023/03/21 10:33:36;;;;;;;14.23;9.45;;;10.20;99.90;;;;;;5078595;28;20083;-75
2023/03/21 10:36:06;;;;;;;14.95;10.75;;;10.20;99.90;;;;;;5092542;28;20394;-75
2023/03/21 10:38:33;;;;;;;14.25;10.90;;;10.00;99.90;;;;;;5075216;28;20526;-74
2023/03/21 10:40:58;;;;;;;;;;;11.30;99.90;;;;;;5080346;28;20028;-75
2023/03/21 10:43:32;;;;;;;12.25;9.25;;;11.30;99.90;;;;;;5070672;28;19928;-74
2023/03/21 10:45:57;;;;;;;13.38;9.55;;;11.30;99.90;;;;;;5092126;28;20127;-75
2023/03/21 10:48:24;;;;;;;11.95;8.10;;;10.10;99.90;;;;;;5077757;28;20117;-75
2023/03/21 10:50:53;;;;;;;11.77;9.60;;;10.10;99.90;;;;;;5048791;28;20040;-74
2023/03/21 10:53:30;;;;;;;12.10;8.75;;;11.30;99.90;;;;;;5070789;28;20051;-74
2023/03/21 10:55:59;;;;;;;12.55;9.80;;;10.80;99.90;;;;;;5082055;28;20037;-74
2023/03/21 10:58:32;;;;;;;17.30;11.02;;;10.20;99.90;;;;;;5085855;28;20065;-75
2023/03/21 11:01:02;;;;;;;15.77;10.68;;;10.40;99.90;;;;;;5080422;28;20036;-75
2023/03/21 11:03:35;;;;;;;14.05;10.32;;;10.30;99.90;;;;;;5091361;28;20047;-74
2023/03/21 11:06:06;;;;;;;16.50;11.40;;;10.50;99.90;;;;;;5077477;28;20043;-74
2023/03/21 11:08:43;;;;;;;16.15;10.52;;;10.80;99.90;;;;;;5080176;28;20068;-75
2023/03/21 11:11:14;;;;;;;;;;;11.10;99.90;;;;;;5076364;28;20487;-74
2023/03/21 11:13:43;;;;;;;16.15;10.45;;;11.50;99.90;;;;;;5075192;28;19943;-75
2023/03/21 11:16:21;;;;;;;12.73;9.30;;;11.40;99.90;;;;;;5087470;28;20047;-74
2023/03/21 11:18:50;;;;;;;16.20;10.13;;;11.60;99.90;;;;;;5066198;28;20044;-74
2023/03/21 11:21:16;;;;;;;14.43;9.38;;;11.60;99.90;;;;;;5090891;28;20040;-74
2023/03/21 11:23:46;;;;;;;;;;;11.10;99.90;;;;;;5091803;28;20075;-74
2023/03/21 11:26:25;;;;;;;14.27;9.63;;;11.50;99.90;;;;;;5077109;28;19916;-74
2023/03/21 11:28:51;;;;;;;10.77;8.43;;;11.20;99.90;;;;;;5091322;28;20122;-74
2023/03/21 11:31:17;;;;;;;;;;;11.50;99.90;;;;;;5091876;28;20063;-74
2023/03/21 11:33:49;;;;;;;10.27;7.53;;;11.40;99.90;;;;;;5090980;28;20375;-74
2023/03/21 11:36:18;;;;;;;12.10;8.23;;;11.90;99.90;;;;;;5091008;28;20562;-75
2023/03/21 11:38:49;;;;;;;10.93;7.97;;;11.70;99.90;;;;;;5091087;28;20063;-74
2023/03/21 11:41:38;;;;;;;10.80;7.82;;;11.80;99.90;;;;;;5074417;28;20348;-75
2023/03/21 11:44:04;;;;;;;10.23;7.68;;;11.90;99.90;;;;;;5080628;28;20098;-75
2023/03/21 11:46:31;;;;;;;13.00;7.32;;;11.80;99.90;;;;;;5076342;28;20530;-74
2023/03/21 11:48:58;;;;;;;11.85;7.43;;;11.70;99.90;;;;;;5090697;28;20044;-74
2023/03/21 11:51:40;;;;;;;13.05;7.55;;;11.80;99.90;;;;;;5077008;28;20060;-74
2023/03/21 11:54:35;;;;;;;10.88;7.32;;;11.70;99.90;;;;;;5076523;28;20043;-74
2023/03/21 11:57:42;;;;;;;12.90;7.50;;;11.80;99.90;;;;;;5076925;28;20078;-75
2023/03/21 12:00:37;;;;;;;12.23;7.22;;;11.80;99.90;;;;;;5068094;28;20040;-75
2023/03/21 12:03:51;;;;;;;11.27;7.68;;;11.90;99.90;;;;;;5055020;28;20071;-76
2023/03/21 12:06:31;;;;;;;11.32;7.43;;;11.90;99.90;;;;;;5046338;28;20468;-74
2023/03/21 12:09:39;;;;;;;10.55;7.18;;;11.90;99.90;;;;;;5084164;28;20032;-75
2023/03/21 12:12:18;;;;;;;10.80;6.85;;;11.80;99.90;;;;;;5069211;28;20060;-74
2023/03/21 12:14:56;;;;;;;12.27;6.88;;;11.80;99.90;;;;;;5074312;28;20047;-75
2023/03/21 12:17:56;;;;;;;12.27;7.30;;;11.80;99.90;;;;;;5090913;28;20383;-75
2023/03/21 12:20:40;;;;;;;12.35;6.97;;;11.70;99.90;;;;;;5090493;28;20043;-75
2023/03/21 12:23:27;;;;;;;10.75;6.43;;;11.80;99.90;;;;;;5089831;28;20082;-75
2023/03/21 12:26:02;;;;;;;12.40;6.85;;;11.80;99.90;;;;;;5091584;28;20487;-76
2023/03/21 12:29:06;;;;;;;9.70;6.20;;;11.70;99.90;;;;;;5090041;28;20032;-75
2023/03/21 12:31:41;;;;;;;11.15;6.57;;;11.70;99.90;;;;;;5090134;28;20039;-75
2023/03/21 12:34:44;;;;;;;10.48;6.40;;;11.60;99.90;;;;;;5090122;28;20055;-76
2023/03/21 12:37:30;;;;;;;9.82;6.32;;;11.50;99.90;;;;;;5062097;28;20515;-76
2023/03/21 12:40:26;;;;;;;9.93;6.30;;;11.50;99.90;;;;;;5072999;28;20056;-76
2023/03/21 12:43:22;;;;;;;12.52;6.88;;;11.60;99.90;;;;;;5088273;28;20063;-75
2023/03/21 12:45:54;;;;;;;8.85;6.30;;;11.60;99.90;;;;;;5079498;28;20048;-74
2023/03/21 12:48:35;;;;;;;10.15;5.75;;;11.50;99.90;;;;;;5089716;28;20090;-74
2023/03/21 12:51:03;;;;;;;11.30;6.28;;;11.50;99.90;;;;;;5062278;28;20147;-75
2023/03/21 12:53:29;;;;;;;10.75;5.88;;;11.50;99.90;;;;;;5072772;28;20101;-75
2023/03/21 12:56:00;;;;;;;14.50;6.72;;;11.50;99.90;;;;;;5081667;28;20052;-74
2023/03/21 12:58:30;;;;;;;12.55;6.90;;;11.60;99.90;;;;;;5076567;28;20812;-74
2023/03/21 13:01:00;;;;;;;11.70;6.38;;;11.70;99.90;;;;;;5074146;28;20036;-74
2023/03/21 13:03:49;;;;;;;8.18;6.00;;;11.80;99.90;;;;;;5076956;28;20107;-76